Sarlat Domme Airfield

METAR LFCR TAF LFCR
-2 °C
°C
-
°C
33m
Alter
09:03:05
LT
08:03
UTC
0 ft

1.000

2.000

3.000

4.000

5.000

VFR
<?= Yii::t('app', 'Wind direction') ?> <?= Yii::t('app', 'of'); ?>
310°
18:00
Sonne unter
93%
Luftfeuchtigkeit
Windscherung
Geschlossen/Schnee
RWY-Sichtweite
RWY Zustand
Vert. Sichtweite
Min. Sichtbarkeit
CAVOK
Trend
Korrektur
Besonderer Bericht
1031 hPa
QNH
METAR LFCR 020730Z AUTO 31005KT CAVOK M02/M03 Q1031 NOSIG
Klar
2 kt
2 kt
09:00
VFR
6 kt
10:00
VFR
6 kt
11:00
VFR
6 kt
12:00
VFR
6 kt
13:00
VFR
6 kt
14:00
VFR
6 kt
15:00
VFR
6 kt
10 km+
Sichtweite
Keine
Wolkendecke
5 kt
Wind
metar-taf.com/LFDS

Metar-Taf.com

Visueller Decoder

Wir und Dritte verfolgen dein Internetverhalten auf unserer Website mit Cookies. Wenn du fortfährst, gehen wir davon aus, dass du mit unserer Cookie-Richtlinie einverstanden bist.